sensor_id;sensor_type;location;lat;lon;timestamp;P1;durP1;ratioP1;P2;durP2;ratioP2
61358;SDS011;47228;46.762;23.598;2023-07-08T00:01:13;7.90;;;5.30;;
61358;SDS011;47228;46.762;23.598;2023-07-08T00:03:46;9.70;;;4.90;;
61358;SDS011;47228;46.762;23.598;2023-07-08T00:08:47;10.60;;;5.90;;
61358;SDS011;47228;46.762;23.598;2023-07-08T00:11:16;14.40;;;5.90;;
61358;SDS011;47228;46.762;23.598;2023-07-08T00:13:45;11.50;;;5.80;;
61358;SDS011;47228;46.762;23.598;2023-07-08T00:16:15;12.30;;;5.40;;
61358;SDS011;47228;46.762;23.598;2023-07-08T00:18:46;10.70;;;5.60;;
61358;SDS011;47228;46.762;23.598;2023-07-08T00:21:17;9.00;;;5.40;;
61358;SDS011;47228;46.762;23.598;2023-07-08T00:23:46;8.80;;;5.30;;
61358;SDS011;47228;46.762;23.598;2023-07-08T00:26:22;12.00;;;5.30;;
61358;SDS011;47228;46.762;23.598;2023-07-08T00:28:52;13.40;;;5.50;;
61358;SDS011;47228;46.762;23.598;2023-07-08T00:31:21;8.80;;;5.40;;
61358;SDS011;47228;46.762;23.598;2023-07-08T00:33:52;11.60;;;5.40;;
61358;SDS011;47228;46.762;23.598;2023-07-08T00:36:24;10.50;;;5.80;;
61358;SDS011;47228;46.762;23.598;2023-07-08T00:38:55;9.10;;;5.50;;
61358;SDS011;47228;46.762;23.598;2023-07-08T00:41:30;10.60;;;5.60;;
61358;SDS011;47228;46.762;23.598;2023-07-08T00:44:02;13.40;;;5.30;;
61358;SDS011;47228;46.762;23.598;2023-07-08T00:51:35;11.70;;;5.40;;
61358;SDS011;47228;46.762;23.598;2023-07-08T00:54:11;9.80;;;5.70;;
61358;SDS011;47228;46.762;23.598;2023-07-08T00:59:22;11.00;;;5.70;;
61358;SDS011;47228;46.762;23.598;2023-07-08T01:01:54;10.40;;;5.90;;
61358;SDS011;47228;46.762;23.598;2023-07-08T01:04:34;14.00;;;6.30;;
61358;SDS011;47228;46.762;23.598;2023-07-08T01:07:09;12.00;;;5.20;;
61358;SDS011;47228;46.762;23.598;2023-07-08T01:09:40;10.40;;;5.10;;
61358;SDS011;47228;46.762;23.598;2023-07-08T01:12:16;12.00;;;5.80;;
61358;SDS011;47228;46.762;23.598;2023-07-08T01:14:50;8.20;;;5.20;;
61358;SDS011;47228;46.762;23.598;2023-07-08T01:17:21;13.70;;;5.30;;
61358;SDS011;47228;46.762;23.598;2023-07-08T01:19:50;12.70;;;5.90;;
61358;SDS011;47228;46.762;23.598;2023-07-08T01:22:18;12.30;;;5.50;;
61358;SDS011;47228;46.762;23.598;2023-07-08T01:24:47;11.30;;;5.90;;
61358;SDS011;47228;46.762;23.598;2023-07-08T01:27:16;10.30;;;5.80;;
61358;SDS011;47228;46.762;23.598;2023-07-08T01:29:47;9.80;;;5.70;;
61358;SDS011;47228;46.762;23.598;2023-07-08T01:32:15;12.90;;;5.90;;
61358;SDS011;47228;46.762;23.598;2023-07-08T01:34:46;15.40;;;6.10;;
61358;SDS011;47228;46.762;23.598;2023-07-08T01:37:35;11.80;;;5.50;;
61358;SDS011;47228;46.762;23.598;2023-07-08T01:42:55;11.80;;;5.60;;
61358;SDS011;47228;46.762;23.598;2023-07-08T01:45:25;11.20;;;5.50;;
61358;SDS011;47228;46.762;23.598;2023-07-08T01:48:06;9.20;;;6.10;;
61358;SDS011;47228;46.762;23.598;2023-07-08T01:50:37;9.00;;;5.40;;
61358;SDS011;47228;46.762;23.598;2023-07-08T01:53:17;8.80;;;5.30;;
61358;SDS011;47228;46.762;23.598;2023-07-08T01:55:48;10.40;;;5.50;;
61358;SDS011;47228;46.762;23.598;2023-07-08T01:58:16;9.60;;;5.40;;
61358;SDS011;47228;46.762;23.598;2023-07-08T02:00:44;9.30;;;5.70;;
61358;SDS011;47228;46.762;23.598;2023-07-08T02:03:12;13.80;;;6.10;;
61358;SDS011;47228;46.762;23.598;2023-07-08T02:05:40;9.00;;;5.30;;
61358;SDS011;47228;46.762;23.598;2023-07-08T02:08:08;13.80;;;5.50;;
61358;SDS011;47228;46.762;23.598;2023-07-08T02:10:37;11.70;;;5.90;;
61358;SDS011;47228;46.762;23.598;2023-07-08T02:13:06;10.90;;;5.50;;
61358;SDS011;47228;46.762;23.598;2023-07-08T02:15:34;11.20;;;5.60;;
61358;SDS011;47228;46.762;23.598;2023-07-08T02:18:02;8.70;;;5.70;;
61358;SDS011;47228;46.762;23.598;2023-07-08T02:20:30;11.20;;;5.30;;
61358;SDS011;47228;46.762;23.598;2023-07-08T02:22:58;9.50;;;5.20;;
61358;SDS011;47228;46.762;23.598;2023-07-08T02:25:26;10.20;;;5.40;;
61358;SDS011;47228;46.762;23.598;2023-07-08T02:27:54;8.80;;;5.20;;
61358;SDS011;47228;46.762;23.598;2023-07-08T02:30:24;11.20;;;6.00;;
61358;SDS011;47228;46.762;23.598;2023-07-08T02:32:53;10.40;;;5.90;;
61358;SDS011;47228;46.762;23.598;2023-07-08T02:35:28;8.50;;;5.10;;
61358;SDS011;47228;46.762;23.598;2023-07-08T02:37:57;10.80;;;5.70;;
61358;SDS011;47228;46.762;23.598;2023-07-08T02:40:25;12.70;;;5.90;;
61358;SDS011;47228;46.762;23.598;2023-07-08T02:42:53;11.50;;;5.70;;
61358;SDS011;47228;46.762;23.598;2023-07-08T02:45:21;12.50;;;5.40;;
61358;SDS011;47228;46.762;23.598;2023-07-08T02:47:49;10.30;;;5.60;;
61358;SDS011;47228;46.762;23.598;2023-07-08T02:50:17;16.00;;;5.70;;
61358;SDS011;47228;46.762;23.598;2023-07-08T02:52:46;11.40;;;5.80;;
61358;SDS011;47228;46.762;23.598;2023-07-08T02:55:14;9.80;;;5.40;;
61358;SDS011;47228;46.762;23.598;2023-07-08T02:57:42;13.80;;;5.90;;
61358;SDS011;47228;46.762;23.598;2023-07-08T03:00:10;10.30;;;5.70;;
61358;SDS011;47228;46.762;23.598;2023-07-08T03:02:39;11.30;;;5.40;;
61358;SDS011;47228;46.762;23.598;2023-07-08T03:05:07;8.20;;;5.70;;
61358;SDS011;47228;46.762;23.598;2023-07-08T03:07:35;8.40;;;5.50;;
61358;SDS011;47228;46.762;23.598;2023-07-08T03:10:03;10.50;;;5.80;;
61358;SDS011;47228;46.762;23.598;2023-07-08T03:12:31;10.90;;;5.50;;
61358;SDS011;47228;46.762;23.598;2023-07-08T03:14:59;13.10;;;6.40;;
61358;SDS011;47228;46.762;23.598;2023-07-08T03:17:27;10.70;;;5.90;;
61358;SDS011;47228;46.762;23.598;2023-07-08T03:19:55;10.80;;;5.40;;
61358;SDS011;47228;46.762;23.598;2023-07-08T03:22:23;14.20;;;5.60;;
61358;SDS011;47228;46.762;23.598;2023-07-08T03:24:51;11.50;;;5.30;;
61358;SDS011;47228;46.762;23.598;2023-07-08T03:27:19;13.60;;;5.60;;
61358;SDS011;47228;46.762;23.598;2023-07-08T03:29:47;10.60;;;5.70;;
61358;SDS011;47228;46.762;23.598;2023-07-08T03:32:15;12.50;;;5.40;;
61358;SDS011;47228;46.762;23.598;2023-07-08T03:34:43;12.00;;;5.80;;
61358;SDS011;47228;46.762;23.598;2023-07-08T03:37:11;12.10;;;5.50;;
61358;SDS011;47228;46.762;23.598;2023-07-08T03:39:39;10.80;;;5.60;;
61358;SDS011;47228;46.762;23.598;2023-07-08T03:42:07;14.30;;;5.80;;
61358;SDS011;47228;46.762;23.598;2023-07-08T03:44:35;13.20;;;5.60;;
61358;SDS011;47228;46.762;23.598;2023-07-08T03:47:03;10.60;;;5.80;;
61358;SDS011;47228;46.762;23.598;2023-07-08T03:49:31;12.90;;;5.70;;
61358;SDS011;47228;46.762;23.598;2023-07-08T03:51:59;10.20;;;6.20;;
61358;SDS011;47228;46.762;23.598;2023-07-08T03:54:27;9.30;;;5.80;;
61358;SDS011;47228;46.762;23.598;2023-07-08T03:56:55;12.60;;;6.30;;
61358;SDS011;47228;46.762;23.598;2023-07-08T03:59:23;13.70;;;6.00;;
61358;SDS011;47228;46.762;23.598;2023-07-08T04:01:51;11.50;;;5.90;;
61358;SDS011;47228;46.762;23.598;2023-07-08T04:04:19;13.20;;;6.50;;
61358;SDS011;47228;46.762;23.598;2023-07-08T04:06:47;18.30;;;7.00;;
61358;SDS011;47228;46.762;23.598;2023-07-08T04:09:14;11.60;;;5.70;;
61358;SDS011;47228;46.762;23.598;2023-07-08T04:11:43;11.30;;;5.60;;
61358;SDS011;47228;46.762;23.598;2023-07-08T04:14:11;10.10;;;6.50;;
61358;SDS011;47228;46.762;23.598;2023-07-08T04:19:19;10.80;;;5.70;;
61358;SDS011;47228;46.762;23.598;2023-07-08T04:21:50;12.60;;;5.70;;
61358;SDS011;47228;46.762;23.598;2023-07-08T04:24:18;13.10;;;6.50;;
61358;SDS011;47228;46.762;23.598;2023-07-08T04:26:46;13.80;;;6.00;;
61358;SDS011;47228;46.762;23.598;2023-07-08T04:29:17;12.10;;;6.00;;
61358;SDS011;47228;46.762;23.598;2023-07-08T04:31:47;14.90;;;5.90;;
61358;SDS011;47228;46.762;23.598;2023-07-08T04:34:16;14.10;;;6.50;;
61358;SDS011;47228;46.762;23.598;2023-07-08T04:36:44;12.20;;;5.70;;
61358;SDS011;47228;46.762;23.598;2023-07-08T04:39:12;12.80;;;5.60;;
61358;SDS011;47228;46.762;23.598;2023-07-08T04:41:41;11.50;;;6.30;;
61358;SDS011;47228;46.762;23.598;2023-07-08T04:44:12;11.10;;;5.60;;
61358;SDS011;47228;46.762;23.598;2023-07-08T04:46:42;9.90;;;5.30;;
61358;SDS011;47228;46.762;23.598;2023-07-08T04:49:14;13.00;;;5.60;;
61358;SDS011;47228;46.762;23.598;2023-07-08T04:51:42;15.10;;;7.60;;
61358;SDS011;47228;46.762;23.598;2023-07-08T04:54:11;13.70;;;5.80;;
61358;SDS011;47228;46.762;23.598;2023-07-08T04:56:43;11.70;;;6.20;;
61358;SDS011;47228;46.762;23.598;2023-07-08T04:59:15;11.40;;;5.90;;
61358;SDS011;47228;46.762;23.598;2023-07-08T05:01:45;12.10;;;5.60;;
61358;SDS011;47228;46.762;23.598;2023-07-08T05:04:17;10.00;;;6.00;;
61358;SDS011;47228;46.762;23.598;2023-07-08T05:06:47;10.30;;;5.80;;
61358;SDS011;47228;46.762;23.598;2023-07-08T05:09:16;12.30;;;5.90;;
61358;SDS011;47228;46.762;23.598;2023-07-08T05:11:44;19.30;;;6.50;;
61358;SDS011;47228;46.762;23.598;2023-07-08T05:14:12;11.50;;;6.30;;
61358;SDS011;47228;46.762;23.598;2023-07-08T05:16:41;11.70;;;6.10;;
61358;SDS011;47228;46.762;23.598;2023-07-08T05:19:09;11.80;;;6.00;;
61358;SDS011;47228;46.762;23.598;2023-07-08T05:21:37;12.90;;;5.80;;
61358;SDS011;47228;46.762;23.598;2023-07-08T05:24:06;10.60;;;6.10;;
61358;SDS011;47228;46.762;23.598;2023-07-08T05:26:34;13.10;;;5.80;;
61358;SDS011;47228;46.762;23.598;2023-07-08T05:29:02;11.00;;;5.80;;
61358;SDS011;47228;46.762;23.598;2023-07-08T05:31:33;11.10;;;5.40;;
61358;SDS011;47228;46.762;23.598;2023-07-08T05:34:04;11.10;;;6.10;;
61358;SDS011;47228;46.762;23.598;2023-07-08T05:36:32;12.30;;;5.90;;
61358;SDS011;47228;46.762;23.598;2023-07-08T05:39:00;12.70;;;6.70;;
61358;SDS011;47228;46.762;23.598;2023-07-08T05:41:28;14.40;;;6.40;;
61358;SDS011;47228;46.762;23.598;2023-07-08T05:43:56;12.80;;;5.80;;
61358;SDS011;47228;46.762;23.598;2023-07-08T05:46:23;10.80;;;6.10;;
61358;SDS011;47228;46.762;23.598;2023-07-08T05:48:52;12.40;;;6.00;;
61358;SDS011;47228;46.762;23.598;2023-07-08T05:51:20;14.90;;;6.00;;
61358;SDS011;47228;46.762;23.598;2023-07-08T05:53:48;10.70;;;6.00;;
61358;SDS011;47228;46.762;23.598;2023-07-08T05:56:16;10.00;;;5.70;;
61358;SDS011;47228;46.762;23.598;2023-07-08T05:58:44;14.80;;;6.00;;
61358;SDS011;47228;46.762;23.598;2023-07-08T06:01:12;11.40;;;6.10;;
61358;SDS011;47228;46.762;23.598;2023-07-08T06:03:40;11.30;;;5.40;;
61358;SDS011;47228;46.762;23.598;2023-07-08T06:06:08;11.60;;;6.10;;
61358;SDS011;47228;46.762;23.598;2023-07-08T06:08:36;13.30;;;5.70;;
61358;SDS011;47228;46.762;23.598;2023-07-08T06:11:04;10.20;;;6.00;;
61358;SDS011;47228;46.762;23.598;2023-07-08T06:13:32;12.30;;;6.10;;
61358;SDS011;47228;46.762;23.598;2023-07-08T06:16:00;13.20;;;6.70;;
61358;SDS011;47228;46.762;23.598;2023-07-08T06:18:28;10.90;;;5.60;;
61358;SDS011;47228;46.762;23.598;2023-07-08T06:20:57;13.90;;;6.50;;
61358;SDS011;47228;46.762;23.598;2023-07-08T06:23:26;9.90;;;5.70;;
61358;SDS011;47228;46.762;23.598;2023-07-08T06:25:55;11.70;;;6.60;;
61358;SDS011;47228;46.762;23.598;2023-07-08T06:28:24;10.80;;;6.10;;
61358;SDS011;47228;46.762;23.598;2023-07-08T06:30:51;12.10;;;6.10;;
61358;SDS011;47228;46.762;23.598;2023-07-08T06:33:19;9.50;;;5.40;;
61358;SDS011;47228;46.762;23.598;2023-07-08T06:35:47;12.30;;;6.60;;
61358;SDS011;47228;46.762;23.598;2023-07-08T06:38:15;19.30;;;7.10;;
61358;SDS011;47228;46.762;23.598;2023-07-08T06:40:43;11.30;;;6.00;;
61358;SDS011;47228;46.762;23.598;2023-07-08T06:43:11;13.40;;;5.60;;
61358;SDS011;47228;46.762;23.598;2023-07-08T06:45:40;10.50;;;5.50;;
61358;SDS011;47228;46.762;23.598;2023-07-08T06:48:08;15.70;;;6.20;;
61358;SDS011;47228;46.762;23.598;2023-07-08T06:50:37;12.20;;;5.10;;
61358;SDS011;47228;46.762;23.598;2023-07-08T06:53:06;14.00;;;5.80;;
61358;SDS011;47228;46.762;23.598;2023-07-08T06:55:34;12.20;;;6.30;;
61358;SDS011;47228;46.762;23.598;2023-07-08T06:58:02;9.60;;;5.80;;
61358;SDS011;47228;46.762;23.598;2023-07-08T07:00:30;13.80;;;5.60;;
61358;SDS011;47228;46.762;23.598;2023-07-08T07:02:58;11.60;;;5.70;;
61358;SDS011;47228;46.762;23.598;2023-07-08T07:05:26;10.70;;;5.80;;
61358;SDS011;47228;46.762;23.598;2023-07-08T07:07:54;12.90;;;5.60;;
61358;SDS011;47228;46.762;23.598;2023-07-08T07:10:23;11.80;;;5.90;;
61358;SDS011;47228;46.762;23.598;2023-07-08T07:12:51;9.90;;;5.70;;
61358;SDS011;47228;46.762;23.598;2023-07-08T07:15:19;11.10;;;5.50;;
61358;SDS011;47228;46.762;23.598;2023-07-08T07:17:47;11.30;;;6.00;;
61358;SDS011;47228;46.762;23.598;2023-07-08T07:20:15;10.60;;;5.00;;
61358;SDS011;47228;46.762;23.598;2023-07-08T07:22:43;14.50;;;5.50;;
61358;SDS011;47228;46.762;23.598;2023-07-08T07:25:11;10.50;;;5.00;;
61358;SDS011;47228;46.762;23.598;2023-07-08T07:27:39;9.10;;;5.70;;
61358;SDS011;47228;46.762;23.598;2023-07-08T07:30:07;10.40;;;5.60;;
61358;SDS011;47228;46.762;23.598;2023-07-08T07:32:43;10.10;;;5.30;;
61358;SDS011;47228;46.762;23.598;2023-07-08T07:35:12;10.50;;;5.30;;
61358;SDS011;47228;46.762;23.598;2023-07-08T07:37:42;9.20;;;4.90;;
61358;SDS011;47228;46.762;23.598;2023-07-08T07:40:11;11.30;;;5.20;;
61358;SDS011;47228;46.762;23.598;2023-07-08T07:42:42;8.90;;;4.90;;
61358;SDS011;47228;46.762;23.598;2023-07-08T07:45:13;8.30;;;5.30;;
61358;SDS011;47228;46.762;23.598;2023-07-08T07:47:41;9.80;;;4.60;;
61358;SDS011;47228;46.762;23.598;2023-07-08T07:50:09;11.20;;;5.40;;
61358;SDS011;47228;46.762;23.598;2023-07-08T07:52:37;10.50;;;5.00;;
61358;SDS011;47228;46.762;23.598;2023-07-08T07:55:06;11.50;;;5.30;;
61358;SDS011;47228;46.762;23.598;2023-07-08T07:57:35;10.50;;;5.20;;
61358;SDS011;47228;46.762;23.598;2023-07-08T08:00:03;11.50;;;4.90;;
61358;SDS011;47228;46.762;23.598;2023-07-08T08:02:31;8.20;;;4.30;;
61358;SDS011;47228;46.762;23.598;2023-07-08T08:04:59;7.70;;;4.30;;
61358;SDS011;47228;46.762;23.598;2023-07-08T08:07:27;9.20;;;4.30;;
61358;SDS011;47228;46.762;23.598;2023-07-08T08:09:55;10.30;;;4.00;;
61358;SDS011;47228;46.762;23.598;2023-07-08T08:12:23;6.60;;;3.60;;
61358;SDS011;47228;46.762;23.598;2023-07-08T08:14:52;7.80;;;3.80;;
61358;SDS011;47228;46.762;23.598;2023-07-08T08:17:20;8.00;;;4.00;;
61358;SDS011;47228;46.762;23.598;2023-07-08T08:19:48;7.10;;;3.70;;
61358;SDS011;47228;46.762;23.598;2023-07-08T08:22:16;6.10;;;3.80;;
61358;SDS011;47228;46.762;23.598;2023-07-08T08:24:44;7.30;;;3.60;;
61358;SDS011;47228;46.762;23.598;2023-07-08T08:27:11;9.90;;;4.00;;
61358;SDS011;47228;46.762;23.598;2023-07-08T08:29:39;9.60;;;3.80;;
61358;SDS011;47228;46.762;23.598;2023-07-08T08:32:10;6.00;;;3.70;;
61358;SDS011;47228;46.762;23.598;2023-07-08T08:34:38;6.50;;;3.70;;
61358;SDS011;47228;46.762;23.598;2023-07-08T08:37:06;6.70;;;3.80;;
61358;SDS011;47228;46.762;23.598;2023-07-08T08:39:34;9.50;;;4.00;;
61358;SDS011;47228;46.762;23.598;2023-07-08T08:42:02;12.20;;;4.90;;
61358;SDS011;47228;46.762;23.598;2023-07-08T08:44:34;10.30;;;4.10;;
61358;SDS011;47228;46.762;23.598;2023-07-08T08:49:44;9.40;;;4.40;;
61358;SDS011;47228;46.762;23.598;2023-07-08T08:52:19;12.00;;;4.30;;
61358;SDS011;47228;46.762;23.598;2023-07-08T08:54:47;11.30;;;4.10;;
61358;SDS011;47228;46.762;23.598;2023-07-08T08:57:37;7.90;;;3.80;;
61358;SDS011;47228;46.762;23.598;2023-07-08T09:02:50;6.70;;;3.50;;
61358;SDS011;47228;46.762;23.598;2023-07-08T09:05:21;8.00;;;3.60;;
61358;SDS011;47228;46.762;23.598;2023-07-08T09:13:15;9.10;;;3.80;;
61358;SDS011;47228;46.762;23.598;2023-07-08T09:15:50;8.60;;;4.40;;
61358;SDS011;47228;46.762;23.598;2023-07-08T09:18:27;7.20;;;3.90;;
61358;SDS011;47228;46.762;23.598;2023-07-08T09:21:06;5.90;;;3.70;;
61358;SDS011;47228;46.762;23.598;2023-07-08T09:23:46;8.00;;;3.90;;
61358;SDS011;47228;46.762;23.598;2023-07-08T09:26:18;10.50;;;3.90;;
61358;SDS011;47228;46.762;23.598;2023-07-08T09:28:50;9.60;;;3.90;;
61358;SDS011;47228;46.762;23.598;2023-07-08T09:31:29;8.30;;;3.70;;
61358;SDS011;47228;46.762;23.598;2023-07-08T09:36:43;8.00;;;3.90;;
61358;SDS011;47228;46.762;23.598;2023-07-08T09:39:14;8.10;;;3.60;;
61358;SDS011;47228;46.762;23.598;2023-07-08T09:41:45;8.50;;;3.50;;
61358;SDS011;47228;46.762;23.598;2023-07-08T09:46:55;8.10;;;4.40;;
61358;SDS011;47228;46.762;23.598;2023-07-08T09:49:31;6.60;;;3.40;;
61358;SDS011;47228;46.762;23.598;2023-07-08T09:52:02;7.10;;;3.30;;
61358;SDS011;47228;46.762;23.598;2023-07-08T09:54:32;9.00;;;4.40;;
61358;SDS011;47228;46.762;23.598;2023-07-08T09:57:02;8.60;;;3.70;;
61358;SDS011;47228;46.762;23.598;2023-07-08T09:59:41;9.40;;;3.50;;
61358;SDS011;47228;46.762;23.598;2023-07-08T10:05:40;9.10;;;3.40;;
61358;SDS011;47228;46.762;23.598;2023-07-08T10:08:17;5.50;;;3.10;;
61358;SDS011;47228;46.762;23.598;2023-07-08T10:10:48;9.20;;;4.00;;
61358;SDS011;47228;46.762;23.598;2023-07-08T10:18:41;6.10;;;3.30;;
61358;SDS011;47228;46.762;23.598;2023-07-08T10:29:53;4.40;;;3.20;;
61358;SDS011;47228;46.762;23.598;2023-07-08T10:32:31;8.50;;;3.90;;
61358;SDS011;47228;46.762;23.598;2023-07-08T10:45:46;6.80;;;3.00;;
61358;SDS011;47228;46.762;23.598;2023-07-08T10:48:45;7.10;;;3.70;;
61358;SDS011;47228;46.762;23.598;2023-07-08T10:57:00;5.70;;;3.30;;
61358;SDS011;47228;46.762;23.598;2023-07-08T11:10:56;5.80;;;3.10;;
61358;SDS011;47228;46.762;23.598;2023-07-08T11:13:47;6.20;;;3.00;;
61358;SDS011;47228;46.762;23.598;2023-07-08T11:16:26;8.40;;;3.10;;
61358;SDS011;47228;46.762;23.598;2023-07-08T11:19:15;5.70;;;3.60;;
61358;SDS011;47228;46.762;23.598;2023-07-08T11:21:48;5.20;;;3.20;;
61358;SDS011;47228;46.762;23.598;2023-07-08T11:24:34;10.50;;;3.10;;
61358;SDS011;47228;46.762;23.598;2023-07-08T11:27:15;5.20;;;3.20;;
61358;SDS011;47228;46.762;23.598;2023-07-08T11:29:50;6.30;;;3.00;;
61358;SDS011;47228;46.762;23.598;2023-07-08T11:32:24;8.50;;;3.40;;
61358;SDS011;47228;46.762;23.598;2023-07-08T11:34:55;5.30;;;3.40;;
61358;SDS011;47228;46.762;23.598;2023-07-08T11:37:24;6.20;;;3.10;;
61358;SDS011;47228;46.762;23.598;2023-07-08T11:39:57;7.10;;;3.40;;
61358;SDS011;47228;46.762;23.598;2023-07-08T11:45:06;6.30;;;3.10;;
61358;SDS011;47228;46.762;23.598;2023-07-08T11:47:45;6.90;;;3.20;;
61358;SDS011;47228;46.762;23.598;2023-07-08T11:52:53;5.10;;;3.40;;
61358;SDS011;47228;46.762;23.598;2023-07-08T11:55:38;6.40;;;3.40;;
61358;SDS011;47228;46.762;23.598;2023-07-08T12:01:03;5.60;;;3.20;;
61358;SDS011;47228;46.762;23.598;2023-07-08T12:08:55;8.80;;;2.90;;
61358;SDS011;47228;46.762;23.598;2023-07-08T12:11:43;7.10;;;3.20;;
61358;SDS011;47228;46.762;23.598;2023-07-08T12:14:12;5.70;;;2.80;;
61358;SDS011;47228;46.762;23.598;2023-07-08T12:16:44;10.80;;;3.50;;
61358;SDS011;47228;46.762;23.598;2023-07-08T12:19:13;7.20;;;2.80;;
61358;SDS011;47228;46.762;23.598;2023-07-08T12:21:45;7.10;;;3.50;;
61358;SDS011;47228;46.762;23.598;2023-07-08T12:24:14;4.90;;;3.10;;
61358;SDS011;47228;46.762;23.598;2023-07-08T12:26:43;6.50;;;3.30;;
61358;SDS011;47228;46.762;23.598;2023-07-08T12:29:11;6.70;;;3.30;;
61358;SDS011;47228;46.762;23.598;2023-07-08T12:31:41;6.10;;;3.40;;
61358;SDS011;47228;46.762;23.598;2023-07-08T12:34:11;7.20;;;3.30;;
61358;SDS011;47228;46.762;23.598;2023-07-08T12:36:42;7.10;;;3.00;;
61358;SDS011;47228;46.762;23.598;2023-07-08T12:39:13;5.00;;;2.90;;
61358;SDS011;47228;46.762;23.598;2023-07-08T12:41:44;6.10;;;2.90;;
61358;SDS011;47228;46.762;23.598;2023-07-08T12:44:18;7.00;;;3.10;;
61358;SDS011;47228;46.762;23.598;2023-07-08T12:46:50;5.80;;;3.10;;
61358;SDS011;47228;46.762;23.598;2023-07-08T12:49:20;8.40;;;2.80;;
61358;SDS011;47228;46.762;23.598;2023-07-08T12:51:51;5.10;;;2.80;;
61358;SDS011;47228;46.762;23.598;2023-07-08T12:54:19;6.00;;;2.80;;
61358;SDS011;47228;46.762;23.598;2023-07-08T12:56:47;5.70;;;3.30;;
61358;SDS011;47228;46.762;23.598;2023-07-08T12:59:17;6.60;;;3.10;;
61358;SDS011;47228;46.762;23.598;2023-07-08T13:01:48;5.10;;;3.20;;
61358;SDS011;47228;46.762;23.598;2023-07-08T13:04:18;6.60;;;3.10;;
61358;SDS011;47228;46.762;23.598;2023-07-08T13:06:47;4.30;;;2.90;;
61358;SDS011;47228;46.762;23.598;2023-07-08T13:12:15;6.80;;;2.90;;
61358;SDS011;47228;46.762;23.598;2023-07-08T13:14:47;5.60;;;3.00;;
61358;SDS011;47228;46.762;23.598;2023-07-08T13:17:16;7.40;;;3.20;;
61358;SDS011;47228;46.762;23.598;2023-07-08T13:19:44;5.30;;;3.40;;
61358;SDS011;47228;46.762;23.598;2023-07-08T13:22:17;5.80;;;3.50;;
61358;SDS011;47228;46.762;23.598;2023-07-08T13:24:47;6.30;;;3.90;;
61358;SDS011;47228;46.762;23.598;2023-07-08T13:27:23;5.00;;;3.10;;
61358;SDS011;47228;46.762;23.598;2023-07-08T13:29:52;5.80;;;3.20;;
61358;SDS011;47228;46.762;23.598;2023-07-08T13:32:28;7.40;;;3.40;;
61358;SDS011;47228;46.762;23.598;2023-07-08T13:34:58;7.00;;;3.60;;
61358;SDS011;47228;46.762;23.598;2023-07-08T13:37:26;5.10;;;2.80;;
61358;SDS011;47228;46.762;23.598;2023-07-08T13:39:58;5.80;;;3.30;;
61358;SDS011;47228;46.762;23.598;2023-07-08T13:42:26;5.30;;;3.20;;
61358;SDS011;47228;46.762;23.598;2023-07-08T13:44:54;6.10;;;3.10;;
61358;SDS011;47228;46.762;23.598;2023-07-08T13:47:25;7.10;;;3.80;;
61358;SDS011;47228;46.762;23.598;2023-07-08T13:49:59;5.70;;;3.30;;
61358;SDS011;47228;46.762;23.598;2023-07-08T13:52:47;7.60;;;3.30;;
61358;SDS011;47228;46.762;23.598;2023-07-08T13:55:22;4.80;;;3.50;;
61358;SDS011;47228;46.762;23.598;2023-07-08T13:57:58;6.90;;;3.30;;
61358;SDS011;47228;46.762;23.598;2023-07-08T14:00:29;7.90;;;3.30;;
61358;SDS011;47228;46.762;23.598;2023-07-08T14:02:58;6.70;;;4.00;;
61358;SDS011;47228;46.762;23.598;2023-07-08T14:05:27;8.00;;;3.90;;
61358;SDS011;47228;46.762;23.598;2023-07-08T14:07:55;8.00;;;3.50;;
61358;SDS011;47228;46.762;23.598;2023-07-08T14:10:23;6.50;;;3.40;;
61358;SDS011;47228;46.762;23.598;2023-07-08T14:12:51;10.90;;;6.00;;
61358;SDS011;47228;46.762;23.598;2023-07-08T14:15:19;9.00;;;4.90;;
61358;SDS011;47228;46.762;23.598;2023-07-08T14:17:47;5.90;;;3.00;;
61358;SDS011;47228;46.762;23.598;2023-07-08T14:20:17;7.00;;;3.60;;
61358;SDS011;47228;46.762;23.598;2023-07-08T14:22:46;6.10;;;3.40;;
61358;SDS011;47228;46.762;23.598;2023-07-08T14:25:15;7.60;;;3.30;;
61358;SDS011;47228;46.762;23.598;2023-07-08T14:27:44;5.90;;;3.20;;
61358;SDS011;47228;46.762;23.598;2023-07-08T14:30:12;5.30;;;2.90;;
61358;SDS011;47228;46.762;23.598;2023-07-08T14:32:40;5.30;;;3.20;;
61358;SDS011;47228;46.762;23.598;2023-07-08T14:35:16;6.40;;;3.00;;
61358;SDS011;47228;46.762;23.598;2023-07-08T14:37:51;5.20;;;3.10;;
61358;SDS011;47228;46.762;23.598;2023-07-08T14:40:25;6.50;;;3.70;;
61358;SDS011;47228;46.762;23.598;2023-07-08T14:43:03;6.00;;;2.90;;
61358;SDS011;47228;46.762;23.598;2023-07-08T14:45:36;7.60;;;3.30;;
61358;SDS011;47228;46.762;23.598;2023-07-08T14:48:11;4.80;;;3.20;;
61358;SDS011;47228;46.762;23.598;2023-07-08T14:50:40;5.10;;;3.20;;
61358;SDS011;47228;46.762;23.598;2023-07-08T14:53:08;7.10;;;3.20;;
61358;SDS011;47228;46.762;23.598;2023-07-08T14:55:36;6.40;;;3.50;;
61358;SDS011;47228;46.762;23.598;2023-07-08T14:58:05;6.20;;;3.40;;
61358;SDS011;47228;46.762;23.598;2023-07-08T15:00:33;6.50;;;3.00;;
61358;SDS011;47228;46.762;23.598;2023-07-08T15:03:01;5.70;;;3.50;;
61358;SDS011;47228;46.762;23.598;2023-07-08T15:05:29;6.20;;;3.20;;
61358;SDS011;47228;46.762;23.598;2023-07-08T15:07:57;6.90;;;3.30;;
61358;SDS011;47228;46.762;23.598;2023-07-08T15:10:29;6.80;;;3.30;;
61358;SDS011;47228;46.762;23.598;2023-07-08T15:12:58;7.90;;;3.40;;
61358;SDS011;47228;46.762;23.598;2023-07-08T15:15:28;6.20;;;3.40;;
61358;SDS011;47228;46.762;23.598;2023-07-08T15:17:58;7.40;;;3.70;;
61358;SDS011;47228;46.762;23.598;2023-07-08T15:20:28;5.30;;;3.10;;
61358;SDS011;47228;46.762;23.598;2023-07-08T15:22:56;6.80;;;3.10;;
61358;SDS011;47228;46.762;23.598;2023-07-08T15:25:24;8.00;;;3.50;;
61358;SDS011;47228;46.762;23.598;2023-07-08T15:27:53;7.10;;;3.40;;
61358;SDS011;47228;46.762;23.598;2023-07-08T15:30:25;6.70;;;3.30;;
61358;SDS011;47228;46.762;23.598;2023-07-08T15:32:54;7.80;;;3.60;;
61358;SDS011;47228;46.762;23.598;2023-07-08T15:35:24;6.70;;;3.30;;
61358;SDS011;47228;46.762;23.598;2023-07-08T15:37:57;7.50;;;3.20;;
61358;SDS011;47228;46.762;23.598;2023-07-08T15:40:26;5.10;;;3.10;;
61358;SDS011;47228;46.762;23.598;2023-07-08T15:42:56;6.10;;;3.30;;
61358;SDS011;47228;46.762;23.598;2023-07-08T15:45:45;6.40;;;3.60;;
61358;SDS011;47228;46.762;23.598;2023-07-08T15:48:14;6.50;;;3.30;;
61358;SDS011;47228;46.762;23.598;2023-07-08T15:50:43;7.40;;;3.50;;
61358;SDS011;47228;46.762;23.598;2023-07-08T15:53:13;8.10;;;3.80;;
61358;SDS011;47228;46.762;23.598;2023-07-08T15:55:44;7.20;;;3.50;;
61358;SDS011;47228;46.762;23.598;2023-07-08T15:58:27;7.00;;;3.50;;
61358;SDS011;47228;46.762;23.598;2023-07-08T16:00:59;9.30;;;3.40;;
61358;SDS011;47228;46.762;23.598;2023-07-08T16:03:30;7.20;;;3.10;;
61358;SDS011;47228;46.762;23.598;2023-07-08T16:06:00;6.70;;;3.30;;
61358;SDS011;47228;46.762;23.598;2023-07-08T16:08:27;7.00;;;3.70;;
61358;SDS011;47228;46.762;23.598;2023-07-08T16:11:00;8.60;;;3.40;;
61358;SDS011;47228;46.762;23.598;2023-07-08T16:13:32;5.80;;;3.20;;
61358;SDS011;47228;46.762;23.598;2023-07-08T16:16:02;5.80;;;3.10;;
61358;SDS011;47228;46.762;23.598;2023-07-08T16:18:30;5.30;;;3.00;;
61358;SDS011;47228;46.762;23.598;2023-07-08T16:20:58;7.20;;;3.40;;